Viridian — MYEX6 — position and weather

sailwx.info

Track history (hours):
 
Tides and Currents Weather Stations Pressure Air Temp Water Temp Dewpoint Dewpoint Depression Visibility Wind Speed Wind Dir Waves Ship Positions

Viridian

Last reported at 2018-May-04 09:42 UTC. Time now 2018-May-24 06:24 UTC.
Position N 38°08' E 013°31'.
Warning: this ship's position is 19 days out of date.

Length 16 m.

Type: Sailing vessel. MMSI: 235009837.

Date/timePositionNaut miles runAvg speedWind from/ knotsBaromVisibWave heightAir tempDewpointWater temp
2018-May-04 09:42N 38°08' E 013°31'1 6.2
2018-May-04 09:29N 38°08' E 013°29'3 5.4
2018-May-04 09:00N 38°07' E 013°26'3 5.4
2018-May-04 08:30N 38°08' E 013°22'0 0.4
2018-May-04 07:58N 38°07' E 013°22'0 0.0
2018-May-04 07:28N 38°07' E 013°22'0 0.0
2018-May-02 09:13N 38°07' E 013°22'0 0.0
2018-May-01 12:26N 38°07' E 013°22'0 0.0
2018-May-01 11:56N 38°07' E 013°22'1 2.3
2018-May-01 11:30N 38°08' E 013°23'4 7.0
2018-May-01 11:00N 38°12' E 013°22'5 6.1
2018-May-01 10:13N 38°15' E 013°17'2 5.9
2018-May-01 09:54N 38°14' E 013°15'  
2018-Apr-27 07:46N 39°06' E 009°17'2 6.7
2018-Apr-27 07:29N 39°07' E 009°15'3 6.6
2018-Apr-27 07:00N 39°08' E 009°11'3 6.4
2018-Apr-27 06:30N 39°10' E 009°07'2 4.1
2018-Apr-27 05:59N 39°12' E 009°08'  
2018-Apr-24 16:12N 39°12' E 009°08'  
Track history (hours):
 
Tides and Currents Weather Stations Pressure Air Temp Water Temp Dewpoint Dewpoint Depression Visibility Wind Speed Wind Dir Waves Ship Positions

Viridian

Last reported at 2018-May-04 09:42 UTC. Time now 2018-May-24 06:24 UTC.
Position N 38°08' E 013°31'.
Warning: this ship's position is 19 days out of date.

Length 16 m.

Type: Sailing vessel. MMSI: 235009837.

Date/timePositionNaut miles runAvg speedWind from/ knotsBaromVisibWave heightAir tempDewpointWater temp
2018-May-04 09:42N 38°08' E 013°31'1 6.2
2018-May-04 09:29N 38°08' E 013°29'3 5.4
2018-May-04 09:00N 38°07' E 013°26'3 5.4
2018-May-04 08:30N 38°08' E 013°22'0 0.4
2018-May-04 07:58N 38°07' E 013°22'0 0.0
2018-May-04 07:28N 38°07' E 013°22'0 0.0
2018-May-02 09:13N 38°07' E 013°22'0 0.0
2018-May-01 12:26N 38°07' E 013°22'0 0.0
2018-May-01 11:56N 38°07' E 013°22'1 2.3
2018-May-01 11:30N 38°08' E 013°23'4 7.0
2018-May-01 11:00N 38°12' E 013°22'5 6.1
2018-May-01 10:13N 38°15' E 013°17'2 5.9
2018-May-01 09:54N 38°14' E 013°15'  
2018-Apr-27 07:46N 39°06' E 009°17'2 6.7
2018-Apr-27 07:29N 39°07' E 009°15'3 6.6
2018-Apr-27 07:00N 39°08' E 009°11'3 6.4
2018-Apr-27 06:30N 39°10' E 009°07'2 4.1
2018-Apr-27 05:59N 39°12' E 009°08'  
2018-Apr-24 16:12N 39°12' E 009°08'  

Dump ship's entire track history